sensor_id;sensor_type;location;lat;lon;timestamp;P1;durP1;ratioP1;P2;durP2;ratioP2
286;SDS011;127;48.770;9.212;2023-02-28T00:01:45;8.77;;;4.70;;
286;SDS011;127;48.770;9.212;2023-02-28T00:04:14;4.82;;;4.10;;
286;SDS011;127;48.770;9.212;2023-02-28T00:06:42;5.55;;;4.00;;
286;SDS011;127;48.770;9.212;2023-02-28T00:09:11;4.68;;;4.00;;
286;SDS011;127;48.770;9.212;2023-02-28T00:11:42;9.98;;;4.30;;
286;SDS011;127;48.770;9.212;2023-02-28T00:14:11;21.95;;;5.68;;
286;SDS011;127;48.770;9.212;2023-02-28T00:16:39;8.10;;;4.25;;
286;SDS011;127;48.770;9.212;2023-02-28T00:19:08;7.25;;;4.13;;
286;SDS011;127;48.770;9.212;2023-02-28T00:21:38;6.88;;;4.22;;
286;SDS011;127;48.770;9.212;2023-02-28T00:24:08;7.40;;;4.20;;
286;SDS011;127;48.770;9.212;2023-02-28T00:26:36;5.70;;;4.10;;
286;SDS011;127;48.770;9.212;2023-02-28T00:29:07;8.43;;;4.63;;
286;SDS011;127;48.770;9.212;2023-02-28T00:31:36;6.07;;;4.43;;
286;SDS011;127;48.770;9.212;2023-02-28T00:34:04;5.38;;;4.45;;
286;SDS011;127;48.770;9.212;2023-02-28T00:36:33;9.25;;;4.25;;
286;SDS011;127;48.770;9.212;2023-02-28T00:39:02;5.38;;;4.82;;
286;SDS011;127;48.770;9.212;2023-02-28T00:41:30;5.95;;;4.57;;
286;SDS011;127;48.770;9.212;2023-02-28T00:43:59;5.10;;;4.10;;
286;SDS011;127;48.770;9.212;2023-02-28T00:46:30;4.80;;;4.50;;
286;SDS011;127;48.770;9.212;2023-02-28T00:48:59;10.40;;;5.18;;
286;SDS011;127;48.770;9.212;2023-02-28T00:51:27;10.23;;;5.65;;
286;SDS011;127;48.770;9.212;2023-02-28T00:53:56;6.05;;;4.68;;
286;SDS011;127;48.770;9.212;2023-02-28T00:56:25;6.60;;;4.95;;
286;SDS011;127;48.770;9.212;2023-02-28T00:58:53;5.78;;;4.05;;
286;SDS011;127;48.770;9.212;2023-02-28T01:01:22;6.90;;;4.10;;
286;SDS011;127;48.770;9.212;2023-02-28T01:03:53;8.10;;;3.95;;
286;SDS011;127;48.770;9.212;2023-02-28T01:06:22;7.47;;;4.68;;
286;SDS011;127;48.770;9.212;2023-02-28T01:08:50;9.95;;;4.30;;
286;SDS011;127;48.770;9.212;2023-02-28T01:11:19;10.00;;;3.85;;
286;SDS011;127;48.770;9.212;2023-02-28T01:13:48;10.93;;;4.85;;
286;SDS011;127;48.770;9.212;2023-02-28T01:16:16;8.45;;;4.22;;
286;SDS011;127;48.770;9.212;2023-02-28T01:18:45;6.15;;;4.47;;
286;SDS011;127;48.770;9.212;2023-02-28T01:21:17;5.72;;;4.03;;
286;SDS011;127;48.770;9.212;2023-02-28T01:23:47;6.80;;;4.00;;
286;SDS011;127;48.770;9.212;2023-02-28T01:26:18;8.75;;;4.70;;
286;SDS011;127;48.770;9.212;2023-02-28T01:28:47;7.93;;;4.97;;
286;SDS011;127;48.770;9.212;2023-02-28T01:31:16;5.25;;;4.13;;
286;SDS011;127;48.770;9.212;2023-02-28T01:33:46;11.25;;;5.10;;
286;SDS011;127;48.770;9.212;2023-02-28T01:36:19;4.80;;;4.55;;
286;SDS011;127;48.770;9.212;2023-02-28T01:38:49;8.70;;;4.82;;
286;SDS011;127;48.770;9.212;2023-02-28T01:41:19;7.90;;;4.70;;
286;SDS011;127;48.770;9.212;2023-02-28T01:43:54;6.20;;;4.72;;
286;SDS011;127;48.770;9.212;2023-02-28T01:46:24;5.40;;;4.40;;
286;SDS011;127;48.770;9.212;2023-02-28T01:48:56;4.50;;;4.00;;
286;SDS011;127;48.770;9.212;2023-02-28T01:51:34;9.93;;;4.78;;
286;SDS011;127;48.770;9.212;2023-02-28T01:54:11;7.07;;;4.85;;
286;SDS011;127;48.770;9.212;2023-02-28T01:56:44;7.45;;;5.07;;
286;SDS011;127;48.770;9.212;2023-02-28T01:59:19;7.25;;;4.75;;
286;SDS011;127;48.770;9.212;2023-02-28T02:01:52;7.97;;;4.63;;
286;SDS011;127;48.770;9.212;2023-02-28T02:04:21;11.40;;;5.10;;
286;SDS011;127;48.770;9.212;2023-02-28T02:06:55;9.95;;;5.05;;
286;SDS011;127;48.770;9.212;2023-02-28T02:09:26;8.38;;;5.00;;
286;SDS011;127;48.770;9.212;2023-02-28T02:11:54;7.63;;;4.95;;
286;SDS011;127;48.770;9.212;2023-02-28T02:14:28;8.38;;;5.35;;
286;SDS011;127;48.770;9.212;2023-02-28T02:17:09;11.48;;;5.25;;
286;SDS011;127;48.770;9.212;2023-02-28T02:23:06;8.80;;;5.07;;
286;SDS011;127;48.770;9.212;2023-02-28T02:25:48;4.82;;;3.90;;
286;SDS011;127;48.770;9.212;2023-02-28T02:28:25;7.32;;;5.00;;
286;SDS011;127;48.770;9.212;2023-02-28T02:31:09;8.73;;;5.57;;
286;SDS011;127;48.770;9.212;2023-02-28T02:34:26;6.88;;;4.80;;
286;SDS011;127;48.770;9.212;2023-02-28T02:37:15;10.50;;;4.80;;
286;SDS011;127;48.770;9.212;2023-02-28T02:40:04;7.15;;;4.93;;
286;SDS011;127;48.770;9.212;2023-02-28T02:42:40;15.05;;;5.20;;
286;SDS011;127;48.770;9.212;2023-02-28T02:45:16;13.93;;;4.72;;
286;SDS011;127;48.770;9.212;2023-02-28T02:47:50;9.85;;;4.60;;
286;SDS011;127;48.770;9.212;2023-02-28T02:50:22;7.70;;;5.10;;
286;SDS011;127;48.770;9.212;2023-02-28T02:52:55;10.23;;;5.43;;
286;SDS011;127;48.770;9.212;2023-02-28T02:55:28;9.82;;;5.57;;
286;SDS011;127;48.770;9.212;2023-02-28T02:58:01;13.00;;;5.45;;
286;SDS011;127;48.770;9.212;2023-02-28T03:00:32;10.85;;;5.90;;
286;SDS011;127;48.770;9.212;2023-02-28T03:03:05;11.18;;;5.90;;
286;SDS011;127;48.770;9.212;2023-02-28T03:05:39;9.73;;;5.25;;
286;SDS011;127;48.770;9.212;2023-02-28T03:08:12;11.32;;;6.15;;
286;SDS011;127;48.770;9.212;2023-02-28T03:10:42;10.20;;;5.97;;
286;SDS011;127;48.770;9.212;2023-02-28T03:13:19;10.75;;;7.18;;
286;SDS011;127;48.770;9.212;2023-02-28T03:19:06;12.07;;;6.43;;
286;SDS011;127;48.770;9.212;2023-02-28T03:21:58;9.13;;;5.93;;
286;SDS011;127;48.770;9.212;2023-02-28T03:24:34;11.68;;;6.28;;
286;SDS011;127;48.770;9.212;2023-02-28T03:27:26;11.23;;;6.15;;
286;SDS011;127;48.770;9.212;2023-02-28T03:29:58;9.93;;;6.18;;
286;SDS011;127;48.770;9.212;2023-02-28T03:32:33;9.50;;;6.03;;
286;SDS011;127;48.770;9.212;2023-02-28T03:35:06;11.98;;;7.05;;
286;SDS011;127;48.770;9.212;2023-02-28T03:37:41;9.80;;;6.40;;
286;SDS011;127;48.770;9.212;2023-02-28T03:40:12;8.57;;;5.80;;
286;SDS011;127;48.770;9.212;2023-02-28T03:42:45;7.72;;;5.72;;
286;SDS011;127;48.770;9.212;2023-02-28T03:45:18;10.25;;;6.18;;
286;SDS011;127;48.770;9.212;2023-02-28T03:47:51;8.35;;;6.10;;
286;SDS011;127;48.770;9.212;2023-02-28T03:50:22;8.18;;;6.32;;
286;SDS011;127;48.770;9.212;2023-02-28T03:52:58;9.65;;;6.20;;
286;SDS011;127;48.770;9.212;2023-02-28T03:55:32;12.18;;;6.28;;
286;SDS011;127;48.770;9.212;2023-02-28T03:58:06;8.18;;;5.68;;
286;SDS011;127;48.770;9.212;2023-02-28T04:00:40;12.07;;;5.82;;
286;SDS011;127;48.770;9.212;2023-02-28T04:03:13;14.90;;;5.93;;
286;SDS011;127;48.770;9.212;2023-02-28T04:05:50;9.77;;;6.72;;
286;SDS011;127;48.770;9.212;2023-02-28T04:08:22;12.18;;;5.90;;
286;SDS011;127;48.770;9.212;2023-02-28T04:10:53;9.43;;;6.55;;
286;SDS011;127;48.770;9.212;2023-02-28T04:13:25;17.42;;;7.07;;
286;SDS011;127;48.770;9.212;2023-02-28T04:15:54;15.23;;;6.47;;
286;SDS011;127;48.770;9.212;2023-02-28T04:18:22;9.45;;;6.28;;
286;SDS011;127;48.770;9.212;2023-02-28T04:20:51;11.20;;;6.10;;
286;SDS011;127;48.770;9.212;2023-02-28T04:23:22;10.40;;;7.38;;
286;SDS011;127;48.770;9.212;2023-02-28T04:25:54;8.88;;;5.93;;
286;SDS011;127;48.770;9.212;2023-02-28T04:28:22;13.00;;;6.93;;
286;SDS011;127;48.770;9.212;2023-02-28T04:30:54;13.68;;;7.13;;
286;SDS011;127;48.770;9.212;2023-02-28T04:33:23;11.27;;;6.72;;
286;SDS011;127;48.770;9.212;2023-02-28T04:35:57;17.27;;;7.25;;
286;SDS011;127;48.770;9.212;2023-02-28T04:38:32;12.07;;;6.70;;
286;SDS011;127;48.770;9.212;2023-02-28T04:41:02;9.48;;;6.15;;
286;SDS011;127;48.770;9.212;2023-02-28T04:43:31;12.52;;;7.32;;
286;SDS011;127;48.770;9.212;2023-02-28T04:46:00;10.82;;;6.68;;
286;SDS011;127;48.770;9.212;2023-02-28T04:48:31;16.95;;;7.38;;
286;SDS011;127;48.770;9.212;2023-02-28T04:51:02;10.75;;;6.35;;
286;SDS011;127;48.770;9.212;2023-02-28T04:53:34;15.25;;;6.43;;
286;SDS011;127;48.770;9.212;2023-02-28T04:56:03;15.00;;;6.78;;
286;SDS011;127;48.770;9.212;2023-02-28T04:58:32;11.52;;;6.63;;
286;SDS011;127;48.770;9.212;2023-02-28T05:01:02;13.80;;;7.35;;
286;SDS011;127;48.770;9.212;2023-02-28T05:03:37;15.20;;;7.28;;
286;SDS011;127;48.770;9.212;2023-02-28T05:06:07;10.93;;;6.88;;
286;SDS011;127;48.770;9.212;2023-02-28T05:08:38;16.58;;;7.22;;
286;SDS011;127;48.770;9.212;2023-02-28T05:11:12;10.90;;;6.63;;
286;SDS011;127;48.770;9.212;2023-02-28T05:13:43;9.30;;;6.18;;
286;SDS011;127;48.770;9.212;2023-02-28T05:16:12;11.60;;;6.47;;
286;SDS011;127;48.770;9.212;2023-02-28T05:18:41;11.60;;;6.88;;
286;SDS011;127;48.770;9.212;2023-02-28T05:24:04;10.73;;;7.07;;
286;SDS011;127;48.770;9.212;2023-02-28T05:26:34;15.75;;;7.15;;
286;SDS011;127;48.770;9.212;2023-02-28T05:29:04;12.70;;;7.97;;
286;SDS011;127;48.770;9.212;2023-02-28T05:31:33;11.45;;;6.85;;
286;SDS011;127;48.770;9.212;2023-02-28T05:34:02;15.40;;;6.57;;
286;SDS011;127;48.770;9.212;2023-02-28T05:36:31;14.38;;;7.70;;
286;SDS011;127;48.770;9.212;2023-02-28T05:39:02;14.48;;;8.00;;
286;SDS011;127;48.770;9.212;2023-02-28T05:41:32;10.32;;;7.10;;
286;SDS011;127;48.770;9.212;2023-02-28T05:44:01;13.10;;;6.90;;
286;SDS011;127;48.770;9.212;2023-02-28T05:46:29;12.85;;;7.38;;
286;SDS011;127;48.770;9.212;2023-02-28T05:48:58;10.98;;;7.07;;
286;SDS011;127;48.770;9.212;2023-02-28T05:51:27;15.35;;;7.93;;
286;SDS011;127;48.770;9.212;2023-02-28T05:53:58;10.23;;;6.68;;
286;SDS011;127;48.770;9.212;2023-02-28T05:56:30;14.23;;;7.65;;
286;SDS011;127;48.770;9.212;2023-02-28T05:58:59;17.00;;;7.55;;
286;SDS011;127;48.770;9.212;2023-02-28T06:01:32;16.13;;;8.05;;
286;SDS011;127;48.770;9.212;2023-02-28T06:04:03;12.30;;;7.57;;
286;SDS011;127;48.770;9.212;2023-02-28T06:06:32;17.45;;;8.50;;
286;SDS011;127;48.770;9.212;2023-02-28T06:09:02;20.13;;;7.55;;
286;SDS011;127;48.770;9.212;2023-02-28T06:11:33;19.35;;;8.48;;
286;SDS011;127;48.770;9.212;2023-02-28T06:14:02;15.73;;;7.55;;
286;SDS011;127;48.770;9.212;2023-02-28T06:16:32;13.48;;;7.85;;
286;SDS011;127;48.770;9.212;2023-02-28T06:19:02;24.25;;;9.05;;
286;SDS011;127;48.770;9.212;2023-02-28T06:21:31;17.75;;;8.77;;
286;SDS011;127;48.770;9.212;2023-02-28T06:24:00;16.75;;;7.72;;
286;SDS011;127;48.770;9.212;2023-02-28T06:26:29;21.48;;;9.85;;
286;SDS011;127;48.770;9.212;2023-02-28T06:29:00;12.00;;;7.70;;
286;SDS011;127;48.770;9.212;2023-02-28T06:31:29;12.43;;;7.50;;
286;SDS011;127;48.770;9.212;2023-02-28T06:33:58;17.00;;;8.68;;
286;SDS011;127;48.770;9.212;2023-02-28T06:36:26;14.25;;;8.05;;
286;SDS011;127;48.770;9.212;2023-02-28T06:38:55;17.35;;;8.50;;
286;SDS011;127;48.770;9.212;2023-02-28T06:41:24;15.00;;;7.72;;
286;SDS011;127;48.770;9.212;2023-02-28T06:43:54;18.20;;;8.82;;
286;SDS011;127;48.770;9.212;2023-02-28T06:46:25;12.95;;;8.10;;
286;SDS011;127;48.770;9.212;2023-02-28T06:48:54;17.63;;;7.65;;
286;SDS011;127;48.770;9.212;2023-02-28T06:51:22;21.42;;;8.48;;
286;SDS011;127;48.770;9.212;2023-02-28T06:53:52;15.95;;;8.23;;
286;SDS011;127;48.770;9.212;2023-02-28T06:56:20;17.50;;;8.48;;
286;SDS011;127;48.770;9.212;2023-02-28T06:58:49;16.95;;;8.20;;
286;SDS011;127;48.770;9.212;2023-02-28T07:01:18;16.33;;;7.85;;
286;SDS011;127;48.770;9.212;2023-02-28T07:03:51;14.80;;;8.35;;
286;SDS011;127;48.770;9.212;2023-02-28T07:06:21;14.80;;;7.55;;
286;SDS011;127;48.770;9.212;2023-02-28T07:08:50;13.68;;;8.23;;
286;SDS011;127;48.770;9.212;2023-02-28T07:11:20;16.75;;;9.13;;
286;SDS011;127;48.770;9.212;2023-02-28T07:13:50;13.60;;;7.53;;
286;SDS011;127;48.770;9.212;2023-02-28T07:16:19;14.30;;;8.40;;
286;SDS011;127;48.770;9.212;2023-02-28T07:18:47;16.08;;;8.43;;
286;SDS011;127;48.770;9.212;2023-02-28T07:21:19;17.50;;;9.02;;
286;SDS011;127;48.770;9.212;2023-02-28T07:23:47;16.48;;;9.27;;
286;SDS011;127;48.770;9.212;2023-02-28T07:26:17;15.02;;;8.98;;
286;SDS011;127;48.770;9.212;2023-02-28T07:28:47;19.35;;;9.55;;
286;SDS011;127;48.770;9.212;2023-02-28T07:31:16;15.27;;;8.50;;
286;SDS011;127;48.770;9.212;2023-02-28T07:33:45;13.65;;;7.50;;
286;SDS011;127;48.770;9.212;2023-02-28T07:36:15;16.20;;;8.52;;
286;SDS011;127;48.770;9.212;2023-02-28T07:38:48;15.60;;;8.38;;
286;SDS011;127;48.770;9.212;2023-02-28T07:41:18;19.52;;;9.55;;
286;SDS011;127;48.770;9.212;2023-02-28T07:43:49;25.23;;;10.50;;
286;SDS011;127;48.770;9.212;2023-02-28T07:46:22;17.65;;;9.20;;
286;SDS011;127;48.770;9.212;2023-02-28T07:48:51;23.92;;;9.35;;
286;SDS011;127;48.770;9.212;2023-02-28T07:51:27;18.80;;;9.05;;
286;SDS011;127;48.770;9.212;2023-02-28T07:53:55;15.18;;;9.20;;
286;SDS011;127;48.770;9.212;2023-02-28T07:56:24;16.67;;;10.25;;
286;SDS011;127;48.770;9.212;2023-02-28T07:58:52;14.32;;;9.07;;
286;SDS011;127;48.770;9.212;2023-02-28T08:01:21;15.18;;;8.32;;
286;SDS011;127;48.770;9.212;2023-02-28T08:03:50;18.42;;;9.95;;
286;SDS011;127;48.770;9.212;2023-02-28T08:06:20;17.25;;;8.93;;
286;SDS011;127;48.770;9.212;2023-02-28T08:08:52;23.42;;;9.45;;
286;SDS011;127;48.770;9.212;2023-02-28T08:11:21;17.70;;;9.65;;
286;SDS011;127;48.770;9.212;2023-02-28T08:13:50;17.48;;;9.40;;
286;SDS011;127;48.770;9.212;2023-02-28T08:16:19;15.00;;;9.35;;
286;SDS011;127;48.770;9.212;2023-02-28T08:18:49;13.95;;;8.63;;
286;SDS011;127;48.770;9.212;2023-02-28T08:21:18;19.70;;;8.80;;
286;SDS011;127;48.770;9.212;2023-02-28T08:23:47;20.05;;;10.48;;
286;SDS011;127;48.770;9.212;2023-02-28T08:26:20;16.52;;;9.20;;
286;SDS011;127;48.770;9.212;2023-02-28T08:28:48;23.52;;;10.02;;
286;SDS011;127;48.770;9.212;2023-02-28T08:31:17;18.98;;;9.73;;
286;SDS011;127;48.770;9.212;2023-02-28T08:33:48;15.27;;;8.30;;
286;SDS011;127;48.770;9.212;2023-02-28T08:36:18;20.08;;;9.38;;
286;SDS011;127;48.770;9.212;2023-02-28T08:38:47;19.15;;;9.40;;
286;SDS011;127;48.770;9.212;2023-02-28T08:41:16;14.70;;;9.05;;
286;SDS011;127;48.770;9.212;2023-02-28T08:43:47;17.20;;;9.85;;
286;SDS011;127;48.770;9.212;2023-02-28T08:46:15;16.65;;;9.75;;
286;SDS011;127;48.770;9.212;2023-02-28T08:48:44;17.05;;;8.75;;
286;SDS011;127;48.770;9.212;2023-02-28T08:51:13;20.30;;;9.50;;
286;SDS011;127;48.770;9.212;2023-02-28T08:53:47;17.50;;;9.63;;
286;SDS011;127;48.770;9.212;2023-02-28T08:56:16;18.88;;;10.43;;
286;SDS011;127;48.770;9.212;2023-02-28T08:58:48;17.13;;;9.30;;
286;SDS011;127;48.770;9.212;2023-02-28T09:01:21;15.30;;;8.68;;
286;SDS011;127;48.770;9.212;2023-02-28T09:03:52;18.60;;;10.15;;
286;SDS011;127;48.770;9.212;2023-02-28T09:06:22;17.25;;;9.57;;
286;SDS011;127;48.770;9.212;2023-02-28T09:08:52;22.15;;;9.20;;
286;SDS011;127;48.770;9.212;2023-02-28T09:11:21;20.27;;;9.80;;
286;SDS011;127;48.770;9.212;2023-02-28T09:13:53;24.30;;;11.10;;
286;SDS011;127;48.770;9.212;2023-02-28T09:16:26;21.20;;;10.43;;
286;SDS011;127;48.770;9.212;2023-02-28T09:18:55;19.52;;;9.88;;
286;SDS011;127;48.770;9.212;2023-02-28T09:21:24;15.55;;;9.88;;
286;SDS011;127;48.770;9.212;2023-02-28T09:23:53;17.83;;;9.10;;
286;SDS011;127;48.770;9.212;2023-02-28T09:26:22;26.42;;;10.38;;
286;SDS011;127;48.770;9.212;2023-02-28T09:28:55;18.85;;;10.80;;
286;SDS011;127;48.770;9.212;2023-02-28T09:31:24;16.98;;;8.93;;
286;SDS011;127;48.770;9.212;2023-02-28T09:33:57;22.83;;;9.63;;
286;SDS011;127;48.770;9.212;2023-02-28T09:36:27;22.75;;;9.85;;
286;SDS011;127;48.770;9.212;2023-02-28T09:38:56;17.98;;;9.52;;
286;SDS011;127;48.770;9.212;2023-02-28T09:41:25;18.27;;;9.55;;
286;SDS011;127;48.770;9.212;2023-02-28T09:44:00;18.13;;;9.13;;
286;SDS011;127;48.770;9.212;2023-02-28T09:46:34;19.95;;;10.05;;
286;SDS011;127;48.770;9.212;2023-02-28T09:49:07;21.17;;;10.52;;
286;SDS011;127;48.770;9.212;2023-02-28T09:51:43;16.73;;;9.32;;
286;SDS011;127;48.770;9.212;2023-02-28T09:54:18;20.80;;;10.80;;
286;SDS011;127;48.770;9.212;2023-02-28T09:56:48;15.45;;;8.88;;
286;SDS011;127;48.770;9.212;2023-02-28T09:59:33;17.75;;;10.00;;
286;SDS011;127;48.770;9.212;2023-02-28T10:05:18;19.63;;;11.05;;
286;SDS011;127;48.770;9.212;2023-02-28T10:07:59;22.73;;;10.32;;
286;SDS011;127;48.770;9.212;2023-02-28T10:10:33;17.58;;;9.73;;
286;SDS011;127;48.770;9.212;2023-02-28T10:13:06;18.85;;;9.32;;
286;SDS011;127;48.770;9.212;2023-02-28T10:15:46;20.92;;;9.88;;
286;SDS011;127;48.770;9.212;2023-02-28T10:18:19;16.33;;;8.95;;
286;SDS011;127;48.770;9.212;2023-02-28T10:20:52;15.88;;;10.20;;
286;SDS011;127;48.770;9.212;2023-02-28T10:23:23;20.10;;;10.30;;
286;SDS011;127;48.770;9.212;2023-02-28T10:25:57;16.20;;;9.45;;
286;SDS011;127;48.770;9.212;2023-02-28T10:28:28;20.73;;;10.70;;
286;SDS011;127;48.770;9.212;2023-02-28T10:31:03;18.92;;;10.88;;
286;SDS011;127;48.770;9.212;2023-02-28T10:33:32;18.60;;;10.27;;
286;SDS011;127;48.770;9.212;2023-02-28T10:36:02;15.30;;;9.98;;
286;SDS011;127;48.770;9.212;2023-02-28T10:38:33;17.50;;;10.23;;
286;SDS011;127;48.770;9.212;2023-02-28T10:41:04;19.67;;;10.23;;
286;SDS011;127;48.770;9.212;2023-02-28T10:43:34;24.35;;;11.60;;
286;SDS011;127;48.770;9.212;2023-02-28T10:46:09;15.63;;;9.20;;
286;SDS011;127;48.770;9.212;2023-02-28T10:48:56;18.20;;;10.70;;
286;SDS011;127;48.770;9.212;2023-02-28T10:51:34;17.25;;;10.05;;
286;SDS011;127;48.770;9.212;2023-02-28T10:54:04;16.75;;;10.25;;
286;SDS011;127;48.770;9.212;2023-02-28T10:56:33;15.88;;;10.65;;
286;SDS011;127;48.770;9.212;2023-02-28T10:59:02;19.20;;;10.25;;
286;SDS011;127;48.770;9.212;2023-02-28T11:01:53;18.10;;;10.43;;
286;SDS011;127;48.770;9.212;2023-02-28T11:04:32;18.48;;;10.32;;
286;SDS011;127;48.770;9.212;2023-02-28T11:07:06;22.52;;;10.43;;
286;SDS011;127;48.770;9.212;2023-02-28T11:09:46;19.52;;;10.95;;
286;SDS011;127;48.770;9.212;2023-02-28T11:12:19;19.42;;;11.02;;
286;SDS011;127;48.770;9.212;2023-02-28T11:14:51;19.30;;;10.02;;
286;SDS011;127;48.770;9.212;2023-02-28T11:17:25;15.83;;;9.67;;
286;SDS011;127;48.770;9.212;2023-02-28T11:19:57;18.77;;;10.93;;
286;SDS011;127;48.770;9.212;2023-02-28T11:22:29;15.23;;;9.43;;
286;SDS011;127;48.770;9.212;2023-02-28T11:25:02;14.00;;;8.40;;
286;SDS011;127;48.770;9.212;2023-02-28T11:27:45;11.80;;;8.07;;
286;SDS011;127;48.770;9.212;2023-02-28T11:30:26;15.50;;;9.63;;
286;SDS011;127;48.770;9.212;2023-02-28T11:32:59;16.00;;;9.60;;
286;SDS011;127;48.770;9.212;2023-02-28T11:35:29;14.97;;;9.40;;
286;SDS011;127;48.770;9.212;2023-02-28T11:38:01;17.50;;;10.03;;
286;SDS011;127;48.770;9.212;2023-02-28T11:40:31;17.20;;;9.20;;
286;SDS011;127;48.770;9.212;2023-02-28T11:43:13;15.37;;;10.47;;
286;SDS011;127;48.770;9.212;2023-02-28T11:45:58;18.10;;;10.07;;
286;SDS011;127;48.770;9.212;2023-02-28T11:48:43;16.40;;;9.80;;
286;SDS011;127;48.770;9.212;2023-02-28T11:51:19;18.40;;;10.10;;
286;SDS011;127;48.770;9.212;2023-02-28T11:53:56;12.77;;;9.27;;
286;SDS011;127;48.770;9.212;2023-02-28T11:56:47;15.13;;;9.27;;
286;SDS011;127;48.770;9.212;2023-02-28T11:59:26;15.00;;;9.10;;
286;SDS011;127;48.770;9.212;2023-02-28T12:02:05;15.10;;;9.23;;
286;SDS011;127;48.770;9.212;2023-02-28T12:04:51;15.43;;;9.10;;
286;SDS011;127;48.770;9.212;2023-02-28T12:07:28;18.50;;;9.60;;
286;SDS011;127;48.770;9.212;2023-02-28T12:10:05;18.70;;;9.37;;
286;SDS011;127;48.770;9.212;2023-02-28T12:12:43;14.90;;;9.60;;
286;SDS011;127;48.770;9.212;2023-02-28T12:15:31;16.27;;;10.40;;
286;SDS011;127;48.770;9.212;2023-02-28T12:18:14;14.53;;;9.13;;
286;SDS011;127;48.770;9.212;2023-02-28T12:20:59;14.33;;;8.50;;
286;SDS011;127;48.770;9.212;2023-02-28T12:23:41;19.17;;;9.33;;
286;SDS011;127;48.770;9.212;2023-02-28T12:26:16;12.43;;;8.93;;
286;SDS011;127;48.770;9.212;2023-02-28T12:28:51;13.03;;;8.90;;
286;SDS011;127;48.770;9.212;2023-02-28T12:31:23;17.20;;;10.33;;
286;SDS011;127;48.770;9.212;2023-02-28T12:33:55;14.73;;;9.23;;
286;SDS011;127;48.770;9.212;2023-02-28T12:36:31;14.33;;;9.37;;
286;SDS011;127;48.770;9.212;2023-02-28T12:39:02;18.27;;;9.30;;
286;SDS011;127;48.770;9.212;2023-02-28T12:41:37;14.60;;;8.47;;
286;SDS011;127;48.770;9.212;2023-02-28T12:44:11;15.40;;;9.67;;
286;SDS011;127;48.770;9.212;2023-02-28T12:46:43;13.63;;;8.40;;
286;SDS011;127;48.770;9.212;2023-02-28T12:49:15;11.10;;;8.10;;
286;SDS011;127;48.770;9.212;2023-02-28T12:51:52;13.97;;;9.10;;
286;SDS011;127;48.770;9.212;2023-02-28T12:54:22;13.93;;;9.57;;
286;SDS011;127;48.770;9.212;2023-02-28T12:56:58;13.40;;;9.17;;
286;SDS011;127;48.770;9.212;2023-02-28T12:59:32;14.63;;;8.93;;
286;SDS011;127;48.770;9.212;2023-02-28T13:05:19;17.20;;;10.37;;
286;SDS011;127;48.770;9.212;2023-02-28T13:08:10;14.80;;;9.63;;
286;SDS011;127;48.770;9.212;2023-02-28T13:11:22;16.67;;;9.40;;
286;SDS011;127;48.770;9.212;2023-02-28T13:13:57;16.73;;;10.27;;
286;SDS011;127;48.770;9.212;2023-02-28T13:16:27;13.83;;;8.70;;
286;SDS011;127;48.770;9.212;2023-02-28T13:19:07;18.67;;;10.00;;
286;SDS011;127;48.770;9.212;2023-02-28T13:21:41;14.10;;;9.10;;
286;SDS011;127;48.770;9.212;2023-02-28T13:24:14;17.80;;;10.20;;
286;SDS011;127;48.770;9.212;2023-02-28T13:30:01;16.40;;;9.97;;
286;SDS011;127;48.770;9.212;2023-02-28T13:33:02;17.20;;;10.00;;
286;SDS011;127;48.770;9.212;2023-02-28T13:36:00;15.30;;;10.03;;
286;SDS011;127;48.770;9.212;2023-02-28T13:38:38;13.60;;;9.40;;
286;SDS011;127;48.770;9.212;2023-02-28T13:44:11;15.20;;;9.57;;
286;SDS011;127;48.770;9.212;2023-02-28T13:49:40;14.07;;;9.67;;
286;SDS011;127;48.770;9.212;2023-02-28T13:52:10;17.73;;;9.63;;
286;SDS011;127;48.770;9.212;2023-02-28T13:54:48;15.00;;;9.50;;
286;SDS011;127;48.770;9.212;2023-02-28T13:57:41;14.60;;;9.47;;
286;SDS011;127;48.770;9.212;2023-02-28T14:00:23;13.10;;;9.07;;
286;SDS011;127;48.770;9.212;2023-02-28T14:03:11;19.60;;;9.27;;
286;SDS011;127;48.770;9.212;2023-02-28T14:08:45;15.40;;;9.83;;
286;SDS011;127;48.770;9.212;2023-02-28T14:11:25;13.40;;;8.63;;
286;SDS011;127;48.770;9.212;2023-02-28T14:13:56;15.27;;;8.80;;
286;SDS011;127;48.770;9.212;2023-02-28T14:16:28;14.90;;;9.50;;
286;SDS011;127;48.770;9.212;2023-02-28T14:19:10;15.00;;;8.90;;
286;SDS011;127;48.770;9.212;2023-02-28T14:21:44;17.37;;;9.97;;
286;SDS011;127;48.770;9.212;2023-02-28T14:24:34;15.33;;;10.00;;
286;SDS011;127;48.770;9.212;2023-02-28T14:27:28;14.40;;;9.53;;
286;SDS011;127;48.770;9.212;2023-02-28T14:30:16;16.00;;;9.80;;
286;SDS011;127;48.770;9.212;2023-02-28T14:33:11;16.90;;;9.00;;
286;SDS011;127;48.770;9.212;2023-02-28T14:35:56;16.33;;;9.10;;
286;SDS011;127;48.770;9.212;2023-02-28T14:38:41;15.53;;;10.23;;
286;SDS011;127;48.770;9.212;2023-02-28T14:41:16;12.77;;;8.50;;
286;SDS011;127;48.770;9.212;2023-02-28T14:43:53;14.40;;;8.97;;
286;SDS011;127;48.770;9.212;2023-02-28T14:46:24;14.20;;;8.00;;
286;SDS011;127;48.770;9.212;2023-02-28T14:48:58;16.70;;;8.93;;
286;SDS011;127;48.770;9.212;2023-02-28T14:51:27;14.90;;;9.33;;
286;SDS011;127;48.770;9.212;2023-02-28T14:53:57;22.50;;;9.67;;
286;SDS011;127;48.770;9.212;2023-02-28T14:56:27;15.00;;;9.30;;
286;SDS011;127;48.770;9.212;2023-02-28T14:59:00;16.00;;;9.67;;
286;SDS011;127;48.770;9.212;2023-02-28T15:01:29;17.17;;;9.97;;
286;SDS011;127;48.770;9.212;2023-02-28T15:04:03;15.90;;;9.93;;
286;SDS011;127;48.770;9.212;2023-02-28T15:06:32;16.90;;;9.70;;
286;SDS011;127;48.770;9.212;2023-02-28T15:09:11;19.00;;;10.30;;
286;SDS011;127;48.770;9.212;2023-02-28T15:11:45;14.60;;;9.60;;
286;SDS011;127;48.770;9.212;2023-02-28T15:14:19;16.73;;;9.20;;
286;SDS011;127;48.770;9.212;2023-02-28T15:16:51;17.47;;;10.37;;
286;SDS011;127;48.770;9.212;2023-02-28T15:19:29;15.53;;;9.70;;
286;SDS011;127;48.770;9.212;2023-02-28T15:22:01;16.40;;;9.80;;
286;SDS011;127;48.770;9.212;2023-02-28T15:24:35;18.47;;;9.60;;
286;SDS011;127;48.770;9.212;2023-02-28T15:27:07;16.30;;;9.83;;
286;SDS011;127;48.770;9.212;2023-02-28T15:29:44;17.23;;;9.00;;
286;SDS011;127;48.770;9.212;2023-02-28T15:32:21;16.23;;;9.27;;
286;SDS011;127;48.770;9.212;2023-02-28T15:34:57;16.90;;;9.90;;
286;SDS011;127;48.770;9.212;2023-02-28T15:37:39;15.60;;;9.40;;
286;SDS011;127;48.770;9.212;2023-02-28T15:40:14;16.47;;;10.27;;
286;SDS011;127;48.770;9.212;2023-02-28T15:42:57;12.50;;;9.27;;
286;SDS011;127;48.770;9.212;2023-02-28T15:45:29;14.00;;;9.00;;
286;SDS011;127;48.770;9.212;2023-02-28T15:48:03;19.73;;;9.40;;
286;SDS011;127;48.770;9.212;2023-02-28T15:50:36;19.47;;;8.90;;
286;SDS011;127;48.770;9.212;2023-02-28T15:53:05;17.10;;;9.10;;
286;SDS011;127;48.770;9.212;2023-02-28T15:55:41;15.07;;;9.30;;
286;SDS011;127;48.770;9.212;2023-02-28T15:58:10;16.67;;;10.10;;
286;SDS011;127;48.770;9.212;2023-02-28T16:00:43;16.90;;;9.30;;
286;SDS011;127;48.770;9.212;2023-02-28T16:03:23;12.50;;;9.30;;
286;SDS011;127;48.770;9.212;2023-02-28T16:08:54;17.83;;;10.50;;
286;SDS011;127;48.770;9.212;2023-02-28T16:11:22;19.00;;;11.10;;
286;SDS011;127;48.770;9.212;2023-02-28T16:13:51;16.30;;;10.77;;
286;SDS011;127;48.770;9.212;2023-02-28T16:16:21;21.20;;;11.20;;
286;SDS011;127;48.770;9.212;2023-02-28T16:18:52;16.93;;;10.50;;
286;SDS011;127;48.770;9.212;2023-02-28T16:21:21;21.17;;;12.20;;
286;SDS011;127;48.770;9.212;2023-02-28T16:23:49;18.47;;;10.37;;
286;SDS011;127;48.770;9.212;2023-02-28T16:26:21;17.83;;;10.73;;
286;SDS011;127;48.770;9.212;2023-02-28T16:28:53;14.47;;;10.00;;
286;SDS011;127;48.770;9.212;2023-02-28T16:31:22;20.47;;;10.93;;
286;SDS011;127;48.770;9.212;2023-02-28T16:33:51;15.77;;;9.90;;
286;SDS011;127;48.770;9.212;2023-02-28T16:36:20;15.60;;;10.10;;
286;SDS011;127;48.770;9.212;2023-02-28T16:38:50;18.30;;;11.00;;